createdAt,value
2017-08-14T00:01:18.950Z,1.80
2017-08-14T00:03:46.478Z,1.60
2017-08-14T00:06:13.982Z,1.80
2017-08-14T00:08:41.504Z,1.90
2017-08-14T00:11:09.033Z,1.97
2017-08-14T00:13:36.545Z,1.70
2017-08-14T00:16:04.064Z,1.60
2017-08-14T00:18:31.573Z,1.83
2017-08-14T00:20:59.109Z,1.80
2017-08-14T00:23:26.622Z,1.60
2017-08-14T00:25:54.109Z,1.53
2017-08-14T00:28:21.638Z,1.70
2017-08-14T00:30:49.140Z,1.60
2017-08-14T00:33:16.680Z,1.73
2017-08-14T00:35:44.195Z,1.57
2017-08-14T00:38:11.712Z,2.10
2017-08-14T00:40:39.279Z,2.00
2017-08-14T00:43:06.811Z,1.63
2017-08-14T00:45:34.378Z,2.03
2017-08-14T00:48:01.904Z,1.80
2017-08-14T00:50:29.395Z,1.57
2017-08-14T00:52:56.944Z,1.90
2017-08-14T00:55:24.459Z,1.80
2017-08-14T00:57:51.954Z,1.73
2017-08-14T01:00:19.521Z,2.03
2017-08-14T01:02:47.015Z,1.63
2017-08-14T01:05:14.545Z,2.10
2017-08-14T01:07:42.125Z,2.20
2017-08-14T01:10:09.613Z,1.70
2017-08-14T01:12:37.162Z,1.80
2017-08-14T01:15:04.732Z,1.73
2017-08-14T01:17:32.227Z,1.53
2017-08-14T01:19:59.764Z,1.50
2017-08-14T01:22:27.261Z,1.93
2017-08-14T01:24:54.805Z,1.50
2017-08-14T01:27:22.303Z,1.87
2017-08-14T01:29:49.781Z,2.00
2017-08-14T01:32:17.665Z,1.90
2017-08-14T01:34:45.155Z,2.00
2017-08-14T01:37:12.659Z,2.10
2017-08-14T01:39:40.574Z,2.20
2017-08-14T01:42:08.063Z,1.93
2017-08-14T01:44:35.562Z,2.00
2017-08-14T01:47:03.126Z,1.93
2017-08-14T01:49:30.635Z,2.30
2017-08-14T01:51:58.162Z,1.97
2017-08-14T01:54:25.695Z,1.70
2017-08-14T01:56:53.278Z,2.07
2017-08-14T01:59:20.774Z,1.83
2017-08-14T02:01:48.287Z,1.70
2017-08-14T02:04:15.823Z,1.90
2017-08-14T02:06:43.327Z,2.13
2017-08-14T02:09:10.893Z,2.40
2017-08-14T02:11:38.406Z,2.10
2017-08-14T02:14:05.924Z,1.70
2017-08-14T02:16:33.474Z,2.00
2017-08-14T02:19:00.968Z,2.00
2017-08-14T02:21:28.493Z,1.90
2017-08-14T02:23:56.000Z,2.03
2017-08-14T02:26:23.514Z,2.37
2017-08-14T02:28:51.067Z,1.77
2017-08-14T02:31:18.635Z,1.80
2017-08-14T02:33:46.135Z,1.80
2017-08-14T02:36:14.306Z,2.10
2017-08-14T02:38:41.967Z,1.93
2017-08-14T02:41:09.464Z,2.30
2017-08-14T02:43:36.965Z,2.10
2017-08-14T02:46:04.488Z,2.47
2017-08-14T02:48:32.026Z,2.20
2017-08-14T02:50:59.557Z,2.10
2017-08-14T02:53:27.070Z,2.30
2017-08-14T02:55:54.612Z,2.30
2017-08-14T02:58:22.114Z,1.87
2017-08-14T03:00:49.658Z,2.50
2017-08-14T03:03:17.152Z,2.20
2017-08-14T03:05:44.680Z,2.63
2017-08-14T03:08:12.250Z,2.10
2017-08-14T03:10:39.759Z,1.77
2017-08-14T03:13:07.284Z,2.07
2017-08-14T03:15:34.803Z,2.23
2017-08-14T03:18:02.352Z,2.43
2017-08-14T03:20:29.899Z,2.40
2017-08-14T03:22:57.396Z,2.53
2017-08-14T03:25:24.973Z,2.20
2017-08-14T03:27:52.479Z,2.80
2017-08-14T03:30:19.977Z,2.10
2017-08-14T03:32:47.503Z,2.50
2017-08-14T03:35:15.027Z,2.60
2017-08-14T03:37:42.616Z,2.10
2017-08-14T03:40:10.111Z,2.07
2017-08-14T03:42:37.641Z,2.20
2017-08-14T03:45:05.252Z,3.30
2017-08-14T03:47:32.753Z,2.97
2017-08-14T03:50:00.252Z,2.30
2017-08-14T03:52:27.777Z,2.53
2017-08-14T03:54:55.281Z,2.73
2017-08-14T03:57:22.834Z,2.90
2017-08-14T03:59:50.356Z,3.83
2017-08-14T04:02:17.920Z,2.30
2017-08-14T04:04:45.446Z,2.37
2017-08-14T04:07:12.939Z,2.80
2017-08-14T04:09:40.455Z,2.50
2017-08-14T04:12:07.959Z,2.30
2017-08-14T04:14:35.538Z,2.50
2017-08-14T04:17:03.057Z,2.10
2017-08-14T04:19:30.633Z,2.40
2017-08-14T04:21:58.124Z,2.10
2017-08-14T04:24:25.624Z,2.50
2017-08-14T04:26:53.147Z,2.40
2017-08-14T04:29:20.661Z,2.37
2017-08-14T04:31:48.211Z,2.33
2017-08-14T04:34:15.753Z,2.60
2017-08-14T04:36:43.271Z,2.10
2017-08-14T04:39:10.770Z,2.73
2017-08-14T04:41:38.301Z,2.80
2017-08-14T04:44:05.832Z,2.57
2017-08-14T04:46:33.392Z,2.50
2017-08-14T04:49:00.875Z,2.77
2017-08-14T04:51:28.372Z,2.87
2017-08-14T04:53:55.903Z,2.30
2017-08-14T04:56:23.495Z,2.77
2017-08-14T04:58:51.434Z,2.80
2017-08-14T05:01:18.934Z,2.97
2017-08-14T05:03:46.588Z,2.37
2017-08-14T05:06:14.184Z,2.67
2017-08-14T05:08:42.044Z,2.37
2017-08-14T05:11:09.615Z,2.60
2017-08-14T05:13:37.123Z,2.73
2017-08-14T05:16:08.620Z,2.40
2017-08-14T05:18:36.132Z,2.60
2017-08-14T05:21:04.480Z,2.20
2017-08-14T05:23:32.027Z,3.60
2017-08-14T05:25:59.555Z,3.63
2017-08-14T05:28:27.066Z,2.97
2017-08-14T05:30:54.629Z,3.43
2017-08-14T05:33:22.189Z,3.03
2017-08-14T05:35:49.724Z,2.63
2017-08-14T05:38:17.934Z,2.80
2017-08-14T05:40:46.298Z,2.80
2017-08-14T05:43:13.798Z,3.07
2017-08-14T05:45:41.319Z,3.13
2017-08-14T05:48:08.925Z,3.47
2017-08-14T05:50:36.429Z,3.33
2017-08-14T05:53:03.932Z,3.20
2017-08-14T05:55:31.458Z,3.00
2017-08-14T05:57:58.942Z,3.47
2017-08-14T06:00:26.479Z,3.27
2017-08-14T06:02:54.067Z,2.73
2017-08-14T06:05:21.601Z,3.10
2017-08-14T06:07:49.153Z,2.60
2017-08-14T06:10:17.034Z,3.27
2017-08-14T06:12:44.543Z,3.27
2017-08-14T06:15:12.039Z,2.63
2017-08-14T06:17:39.613Z,2.80
2017-08-14T06:20:07.162Z,2.83
2017-08-14T06:22:35.033Z,2.80
2017-08-14T06:25:02.673Z,3.67
2017-08-14T06:27:30.225Z,2.80
2017-08-14T06:29:57.836Z,3.10
2017-08-14T06:32:25.372Z,3.00
2017-08-14T06:34:52.940Z,2.70
2017-08-14T06:37:20.456Z,3.50
2017-08-14T06:39:48.018Z,3.50
2017-08-14T06:42:16.497Z,3.40
2017-08-14T06:44:46.926Z,3.27
2017-08-14T06:47:15.246Z,3.40
2017-08-14T06:49:42.731Z,2.70
2017-08-14T06:52:10.272Z,3.10
2017-08-14T06:54:37.775Z,3.50
2017-08-14T06:57:06.188Z,3.30
2017-08-14T06:59:33.709Z,3.60
2017-08-14T07:02:01.571Z,2.97
2017-08-14T07:04:29.094Z,2.60
2017-08-14T07:06:56.605Z,3.27
2017-08-14T07:09:24.163Z,2.87
2017-08-14T07:11:51.712Z,2.80
2017-08-14T07:14:19.274Z,3.00
2017-08-14T07:16:46.758Z,2.97
2017-08-14T07:19:14.323Z,3.07
2017-08-14T07:21:41.844Z,3.63
2017-08-14T07:24:09.350Z,3.77
2017-08-14T07:26:36.892Z,3.30
2017-08-14T07:29:04.384Z,3.60
2017-08-14T07:31:31.931Z,3.47
2017-08-14T07:33:59.451Z,3.30
2017-08-14T07:36:27.045Z,3.13
2017-08-14T07:38:54.544Z,4.57
2017-08-14T07:41:22.068Z,3.70
2017-08-14T07:43:49.659Z,3.70
2017-08-14T07:46:17.169Z,3.33
2017-08-14T07:48:44.725Z,3.07
2017-08-14T07:51:12.239Z,3.00
2017-08-14T07:53:39.771Z,3.33
2017-08-14T07:56:07.267Z,3.43
2017-08-14T07:58:34.866Z,3.70
2017-08-14T08:01:02.404Z,3.50
2017-08-14T08:03:31.721Z,4.10
2017-08-14T08:05:59.270Z,4.50
2017-08-14T08:08:26.792Z,4.07
2017-08-14T08:10:54.362Z,4.00
2017-08-14T08:13:21.920Z,3.50
2017-08-14T08:15:49.459Z,3.80
2017-08-14T08:18:16.997Z,3.77
2017-08-14T08:20:45.627Z,3.70
2017-08-14T08:23:13.268Z,3.30
2017-08-14T08:25:40.806Z,4.10
2017-08-14T08:28:08.351Z,4.07
2017-08-14T08:30:35.923Z,3.27
2017-08-14T08:33:03.539Z,3.80
2017-08-14T08:35:31.031Z,4.17
2017-08-14T08:37:58.570Z,4.00
2017-08-14T08:40:26.092Z,3.47
2017-08-14T08:42:53.623Z,3.70
2017-08-14T08:45:21.503Z,3.43
2017-08-14T08:47:49.019Z,3.70
2017-08-14T08:50:16.542Z,3.80
2017-08-14T08:52:44.112Z,3.83
2017-08-14T08:55:11.639Z,3.60
2017-08-14T08:57:39.174Z,3.27
2017-08-14T09:00:06.681Z,3.80
2017-08-14T09:02:34.214Z,3.87
2017-08-14T09:05:02.058Z,3.53
2017-08-14T09:07:29.711Z,4.13
2017-08-14T09:09:57.228Z,4.20
2017-08-14T09:12:24.752Z,3.90
2017-08-14T09:14:52.309Z,3.90
2017-08-14T09:17:19.863Z,4.00
2017-08-14T09:19:47.422Z,4.20
2017-08-14T09:22:14.954Z,3.60
2017-08-14T09:24:43.486Z,3.53
2017-08-14T09:27:11.029Z,3.20
2017-08-14T09:29:38.557Z,3.60
2017-08-14T09:32:06.103Z,3.60
2017-08-14T09:34:33.645Z,3.60
2017-08-14T09:37:01.155Z,3.70
2017-08-14T09:39:28.688Z,3.47
2017-08-14T09:41:56.174Z,3.50
2017-08-14T09:44:23.719Z,3.30
2017-08-14T09:46:51.222Z,3.30
2017-08-14T09:49:19.126Z,3.33
2017-08-14T09:51:46.629Z,3.03
2017-08-14T09:54:14.744Z,3.30
2017-08-14T09:56:42.357Z,3.60
2017-08-14T09:59:09.898Z,2.90
2017-08-14T10:01:37.387Z,3.37
2017-08-14T10:04:04.890Z,3.23
2017-08-14T10:06:32.436Z,2.63
2017-08-14T10:08:59.992Z,3.63
2017-08-14T10:11:27.502Z,3.43
2017-08-14T10:13:55.008Z,3.60
2017-08-14T10:16:22.631Z,2.90
2017-08-14T10:18:50.133Z,3.90
2017-08-14T10:21:17.874Z,3.37
2017-08-14T10:23:45.434Z,3.37
2017-08-14T10:26:12.958Z,3.60
2017-08-14T10:28:40.489Z,2.53
2017-08-14T10:31:08.005Z,3.23
2017-08-14T10:33:35.512Z,2.43
2017-08-14T10:36:03.103Z,2.47
2017-08-14T10:38:30.621Z,2.87
2017-08-14T10:40:58.173Z,2.70
2017-08-14T10:43:25.720Z,2.70
2017-08-14T10:45:53.608Z,3.27
2017-08-14T10:48:21.145Z,3.00
2017-08-14T10:50:48.650Z,2.77
2017-08-14T10:53:16.227Z,3.57
2017-08-14T10:55:43.739Z,3.60
2017-08-14T10:58:11.341Z,3.20
2017-08-14T11:00:38.999Z,3.23
2017-08-14T11:03:06.533Z,4.20
2017-08-14T11:05:34.071Z,3.90
2017-08-14T11:08:01.653Z,3.50
2017-08-14T11:10:29.179Z,2.70
2017-08-14T11:12:56.729Z,2.97
2017-08-14T11:15:24.296Z,2.93
2017-08-14T11:17:51.815Z,3.37
2017-08-14T11:20:19.324Z,3.27
2017-08-14T11:22:46.902Z,3.30
2017-08-14T11:25:14.396Z,3.00
2017-08-14T11:27:41.939Z,3.93
2017-08-14T11:30:09.513Z,3.17
2017-08-14T11:32:37.008Z,2.87
2017-08-14T11:35:04.590Z,3.50
2017-08-14T11:37:32.189Z,3.07
2017-08-14T11:39:59.705Z,3.60
2017-08-14T11:42:27.234Z,4.60
2017-08-14T11:44:54.762Z,4.40
2017-08-14T11:47:22.290Z,3.73
2017-08-14T11:49:49.798Z,4.30
2017-08-14T11:52:17.351Z,4.40
2017-08-14T11:54:44.890Z,4.53
2017-08-14T11:57:12.439Z,3.63
2017-08-14T11:59:39.942Z,3.47
2017-08-14T12:02:07.486Z,2.83
2017-08-14T12:04:35.089Z,2.30
2017-08-14T12:07:02.622Z,3.27
2017-08-14T12:09:30.133Z,3.97
2017-08-14T12:11:57.742Z,3.80
2017-08-14T12:14:25.560Z,3.70
2017-08-14T12:16:53.089Z,2.97
2017-08-14T12:19:20.596Z,2.93
2017-08-14T12:21:48.155Z,2.27
2017-08-14T12:24:15.824Z,1.90
2017-08-14T12:26:43.452Z,1.70
2017-08-14T12:29:10.965Z,1.70
2017-08-14T12:31:38.483Z,1.77
2017-08-14T12:34:06.016Z,2.03
2017-08-14T12:36:33.547Z,1.73
2017-08-14T12:39:01.094Z,1.90
2017-08-14T12:41:28.640Z,2.20
2017-08-14T12:43:56.189Z,1.93
2017-08-14T12:46:23.724Z,2.93
2017-08-14T12:48:51.228Z,1.90
2017-08-14T12:51:18.826Z,4.07
2017-08-14T12:53:46.323Z,3.60
2017-08-14T12:56:13.844Z,4.10
2017-08-14T12:58:41.403Z,4.03
2017-08-14T13:01:08.958Z,3.40
2017-08-14T13:03:36.447Z,2.60
2017-08-14T13:06:04.020Z,3.73
2017-08-14T13:08:31.578Z,2.97
2017-08-14T13:10:59.070Z,2.70
2017-08-14T13:13:26.605Z,3.10
2017-08-14T13:15:54.090Z,3.70
2017-08-14T13:18:21.655Z,2.53
2017-08-14T13:20:49.188Z,2.50
2017-08-14T13:23:16.818Z,2.60
2017-08-14T13:25:44.325Z,3.03
2017-08-14T13:28:11.834Z,4.30
2017-08-14T13:30:39.370Z,5.53
2017-08-14T13:33:06.880Z,4.80
2017-08-14T13:35:34.404Z,5.70
2017-08-14T13:38:01.975Z,2.60
2017-08-14T13:40:29.504Z,2.60
2017-08-14T13:42:57.035Z,2.40
2017-08-14T13:45:24.535Z,2.40
2017-08-14T13:47:52.126Z,2.40
2017-08-14T13:50:19.654Z,2.33
2017-08-14T13:52:47.201Z,3.40
2017-08-14T13:55:15.064Z,2.20
2017-08-14T13:57:42.622Z,3.03
2017-08-14T14:00:10.165Z,2.90
2017-08-14T14:02:37.803Z,3.73
2017-08-14T14:05:05.540Z,4.20
2017-08-14T14:07:33.081Z,6.00
2017-08-14T14:10:00.589Z,4.10
2017-08-14T14:12:28.090Z,3.07
2017-08-14T14:14:55.644Z,2.77
2017-08-14T14:17:23.150Z,3.17
2017-08-14T14:19:50.695Z,3.57
2017-08-14T14:22:18.251Z,3.03
2017-08-14T14:24:45.743Z,2.47
2017-08-14T14:27:13.335Z,2.50
2017-08-14T14:29:40.847Z,2.40
2017-08-14T14:32:08.352Z,3.17
2017-08-14T14:34:35.904Z,2.83
2017-08-14T14:37:03.427Z,2.93
2017-08-14T14:39:30.932Z,2.40
2017-08-14T14:41:58.473Z,2.20
2017-08-14T14:44:25.987Z,2.10
2017-08-14T14:46:53.541Z,2.00
2017-08-14T14:49:21.083Z,2.37
2017-08-14T14:51:48.641Z,2.00
2017-08-14T14:54:16.131Z,2.13
2017-08-14T14:56:43.655Z,2.20
2017-08-14T14:59:11.176Z,2.13
2017-08-14T15:01:38.735Z,2.47
2017-08-14T15:04:06.249Z,2.30
2017-08-14T15:06:33.796Z,2.00
2017-08-14T15:09:01.368Z,1.63
2017-08-14T15:11:28.940Z,2.10
2017-08-14T15:13:56.490Z,1.57
2017-08-14T15:16:24.027Z,2.00
2017-08-14T15:18:51.547Z,2.50
2017-08-14T15:21:19.051Z,2.43
2017-08-14T15:23:46.600Z,2.07
2017-08-14T15:26:14.136Z,2.50
2017-08-14T15:28:41.687Z,2.10
2017-08-14T15:31:09.203Z,2.00
2017-08-14T15:33:36.793Z,2.73
2017-08-14T15:36:04.292Z,2.37
2017-08-14T15:38:31.796Z,3.17
2017-08-14T15:40:59.365Z,2.70
2017-08-14T15:43:26.906Z,2.60
2017-08-14T15:45:54.459Z,2.23
2017-08-14T15:48:22.025Z,3.03
2017-08-14T15:50:49.585Z,3.20
2017-08-14T15:53:17.411Z,3.00
2017-08-14T15:55:44.984Z,3.10
2017-08-14T15:58:12.543Z,2.73
2017-08-14T16:00:40.091Z,3.60
2017-08-14T16:03:07.581Z,3.20
2017-08-14T16:05:35.133Z,2.50
2017-08-14T16:08:02.701Z,2.20
2017-08-14T16:10:30.223Z,2.90
2017-08-14T16:12:57.753Z,3.17
2017-08-14T16:15:25.270Z,3.30
2017-08-14T16:17:53.459Z,2.57
2017-08-14T16:20:20.961Z,4.20
2017-08-14T16:22:48.461Z,3.83
2017-08-14T16:25:16.111Z,3.73
2017-08-14T16:27:43.619Z,3.00
2017-08-14T16:30:11.132Z,4.37
2017-08-14T16:32:38.693Z,3.10
2017-08-14T16:35:06.650Z,3.70
2017-08-14T16:37:34.187Z,3.67
2017-08-14T16:40:01.676Z,3.93
2017-08-14T16:42:29.214Z,3.77
2017-08-14T16:44:56.712Z,3.93
2017-08-14T16:47:24.258Z,4.67
2017-08-14T16:49:51.808Z,4.53
2017-08-14T16:52:19.341Z,3.30
2017-08-14T16:54:46.936Z,3.90
2017-08-14T16:57:14.525Z,3.80
2017-08-14T16:59:42.090Z,4.17
2017-08-14T17:02:09.614Z,3.07
2017-08-14T17:04:37.197Z,4.50
2017-08-14T17:07:04.744Z,3.87
2017-08-14T17:09:32.263Z,6.47
2017-08-14T17:11:59.814Z,5.43
2017-08-14T17:14:27.300Z,4.37
2017-08-14T17:16:54.842Z,4.30
2017-08-14T17:19:22.338Z,5.60
2017-08-14T17:21:49.833Z,5.80
2017-08-14T17:24:17.372Z,5.47
2017-08-14T17:26:44.944Z,4.40
2017-08-14T17:29:12.436Z,3.20
2017-08-14T17:31:39.997Z,3.50
2017-08-14T17:34:07.502Z,3.77
2017-08-14T17:36:35.038Z,3.90
2017-08-14T17:39:02.637Z,5.20
2017-08-14T17:41:30.151Z,5.60
2017-08-14T17:43:57.712Z,7.10
2017-08-14T17:46:25.267Z,4.53
2017-08-14T17:48:52.796Z,6.77
2017-08-14T17:51:20.359Z,9.03
2017-08-14T17:53:47.947Z,8.73
2017-08-14T17:56:16.682Z,5.33
2017-08-14T17:58:44.197Z,5.80
2017-08-14T18:01:11.843Z,7.23
2017-08-14T18:03:39.392Z,6.97
2017-08-14T18:06:06.900Z,6.27
2017-08-14T18:08:34.449Z,4.93
2017-08-14T18:11:01.965Z,5.77
2017-08-14T18:13:29.511Z,5.10
2017-08-14T18:15:57.060Z,5.13
2017-08-14T18:18:24.564Z,4.23
2017-08-14T18:20:52.107Z,5.67
2017-08-14T18:23:19.665Z,5.60
2017-08-14T18:25:47.179Z,6.23
2017-08-14T18:28:14.747Z,6.37
2017-08-14T18:30:42.240Z,5.87
2017-08-14T18:33:10.990Z,5.17
2017-08-14T18:35:38.549Z,4.90
2017-08-14T18:38:06.143Z,3.13
2017-08-14T18:40:33.666Z,4.40
2017-08-14T18:43:01.182Z,4.53
2017-08-14T18:45:28.790Z,5.87
2017-08-14T18:47:56.343Z,5.27
2017-08-14T18:50:24.791Z,4.67
2017-08-14T18:52:52.289Z,5.40
2017-08-14T18:55:19.811Z,4.10
2017-08-14T18:57:47.370Z,4.23
2017-08-14T19:00:14.946Z,6.27
2017-08-14T19:02:42.509Z,4.90
2017-08-14T19:05:10.095Z,5.10
2017-08-14T19:07:38.257Z,5.10
2017-08-14T19:10:05.306Z,4.93
2017-08-14T19:12:32.876Z,4.53
2017-08-14T19:15:00.443Z,3.87
2017-08-14T19:17:28.009Z,4.57
2017-08-14T19:19:55.568Z,4.60
2017-08-14T19:22:23.150Z,4.77
2017-08-14T19:24:50.652Z,5.20
2017-08-14T19:27:18.192Z,5.30
2017-08-14T19:29:46.776Z,5.20
2017-08-14T19:32:14.594Z,5.40
2017-08-14T19:34:42.243Z,5.73
2017-08-14T19:37:09.939Z,5.20
2017-08-14T19:39:37.615Z,4.90
2017-08-14T19:42:05.230Z,5.13
2017-08-14T19:44:32.931Z,5.47
2017-08-14T19:47:01.535Z,5.30
2017-08-14T19:49:30.158Z,6.23
2017-08-14T19:51:58.048Z,5.70
2017-08-14T19:54:25.825Z,4.90
2017-08-14T19:56:53.528Z,5.67
2017-08-14T19:59:21.235Z,5.60
2017-08-14T20:01:48.858Z,5.00
2017-08-14T20:04:16.470Z,4.70
2017-08-14T20:06:45.169Z,4.80
2017-08-14T20:09:12.877Z,4.73
2017-08-14T20:11:40.535Z,5.10
2017-08-14T20:14:08.241Z,5.60
2017-08-14T20:16:35.899Z,5.20
2017-08-14T20:19:03.468Z,6.33
2017-08-14T20:21:31.017Z,6.83
2017-08-14T20:23:58.530Z,6.80
2017-08-14T20:26:26.105Z,5.20
2017-08-14T20:28:53.652Z,5.30
2017-08-14T20:31:21.207Z,5.60
2017-08-14T20:33:48.741Z,5.60
2017-08-14T20:36:16.705Z,5.33
2017-08-14T20:38:44.203Z,5.60
2017-08-14T20:41:11.715Z,5.77
2017-08-14T20:43:39.280Z,5.53
2017-08-14T20:46:06.870Z,6.87
2017-08-14T20:48:34.415Z,5.70
2017-08-14T20:51:01.915Z,6.40
2017-08-14T20:53:29.452Z,7.13
2017-08-14T20:55:56.979Z,6.07
2017-08-14T20:58:24.577Z,6.33
2017-08-14T21:00:52.096Z,5.80
2017-08-14T21:03:19.632Z,5.90
2017-08-14T21:05:47.183Z,5.40
2017-08-14T21:08:14.734Z,6.07
2017-08-14T21:10:42.345Z,5.87
2017-08-14T21:13:09.861Z,6.57
2017-08-14T21:15:37.372Z,5.40
2017-08-14T21:18:04.917Z,5.60
2017-08-14T21:20:32.404Z,6.87
2017-08-14T21:22:59.940Z,6.50
2017-08-14T21:25:27.468Z,5.90
2017-08-14T21:27:54.982Z,6.07
2017-08-14T21:30:22.565Z,6.33
2017-08-14T21:32:50.088Z,6.80
2017-08-14T21:35:17.616Z,6.40
2017-08-14T21:37:45.180Z,5.70
2017-08-14T21:40:12.752Z,5.77
2017-08-14T21:42:40.245Z,6.63
2017-08-14T21:45:07.773Z,6.13
2017-08-14T21:47:35.341Z,6.83
2017-08-14T21:50:02.929Z,7.10
2017-08-14T21:52:30.476Z,7.70
2017-08-14T21:54:57.974Z,6.57
2017-08-14T21:57:25.537Z,6.70
2017-08-14T21:59:53.056Z,6.60
2017-08-14T22:02:20.608Z,6.90
2017-08-14T22:04:48.130Z,7.10
2017-08-14T22:07:16.250Z,5.97
2017-08-14T22:09:43.847Z,6.30
2017-08-14T22:12:11.368Z,6.10
2017-08-14T22:14:38.856Z,5.87
2017-08-14T22:17:06.921Z,6.43
2017-08-14T22:19:34.451Z,7.07
2017-08-14T22:22:02.006Z,6.80
2017-08-14T22:24:29.513Z,7.00
2017-08-14T22:26:57.934Z,6.60
2017-08-14T22:29:25.451Z,6.60
2017-08-14T22:31:53.698Z,6.60
2017-08-14T22:34:21.270Z,7.10
2017-08-14T22:36:48.769Z,6.07
2017-08-14T22:39:16.311Z,6.10
2017-08-14T22:41:43.841Z,5.73
2017-08-14T22:44:11.398Z,6.27
2017-08-14T22:46:38.931Z,5.77
2017-08-14T22:49:06.428Z,6.37
2017-08-14T22:51:33.968Z,6.80
2017-08-14T22:54:01.457Z,6.60
2017-08-14T22:56:29.003Z,6.87
2017-08-14T22:58:56.500Z,7.33
2017-08-14T23:01:24.075Z,7.90
2017-08-14T23:03:51.598Z,8.17
2017-08-14T23:06:19.098Z,7.87
2017-08-14T23:08:46.632Z,8.30
2017-08-14T23:11:14.116Z,8.43
2017-08-14T23:13:41.685Z,7.17
2017-08-14T23:16:09.186Z,7.87
2017-08-14T23:18:36.706Z,8.13
2017-08-14T23:21:04.253Z,8.47
2017-08-14T23:23:31.754Z,8.33
2017-08-14T23:25:59.272Z,8.00
2017-08-14T23:28:26.814Z,8.70
2017-08-14T23:30:54.334Z,9.27
2017-08-14T23:33:21.890Z,8.13
2017-08-14T23:35:49.435Z,8.80
2017-08-14T23:38:17.559Z,8.23
2017-08-14T23:40:45.106Z,8.40
2017-08-14T23:43:12.640Z,8.97
2017-08-14T23:45:40.242Z,9.03
2017-08-14T23:48:08.862Z,8.43
2017-08-14T23:50:36.364Z,9.90
2017-08-14T23:53:03.912Z,8.73
2017-08-14T23:55:31.432Z,8.43
2017-08-14T23:57:58.922Z,8.70
